Jerseyville, IL

5:37 AM CDT on August 21, 2014 (GMT -0500)
Piasa | Change Station
CLOSE
Current Station
Personal Weather Station
Location: Piasa, IL
Elevation: 591 ft
Nearby Weather Stations
Active Advisory: Heat Advisory

Elev 591 ft 39.12 °N, 90.14 °W | Updated 3 minutes ago

Mist
Mist
73.0 °F
Feels Like 73.0 °F
N
6.0
Wind Variable Wind from South
Gusts 7.0 mph

Today
High -- | Low -- °F
--% Chance of Precip.
Yesterday
High -- | Low -- °F
Precip. -- in
6:20 AM 7:48 PM
Waning Crescent, 15% visible
Pressure 29.95 in
Visibility 0.8 miles
Clouds
Dew Point 71 °F
Humidity 94%
Rainfall 0.02 in
Snow Depth Not available.
UV Not available.
Pollen 10.30 out of 12
Air Quality Not available.
Flu Activity Not available.
SPECI KSET 211021Z AUTO 00000KT 3/4SM BR VV003 21/20 A2995 RMK AO1 T02060200

More Conditions Fewer Conditions

Pressure 29.95 in
Visibility 0.8 miles
Clouds
Dew Point 71 °F
Humidity 94%
Rainfall 0.02 in
Snow Depth Not available.
UV Not available.
Pollen 10.30 out of 12
Air Quality Not available.
Flu Activity Not available.
SPECI KSET 211021Z AUTO 00000KT 3/4SM BR VV003 21/20 A2995 RMK AO1 T02060200

More Conditions Fewer Conditions

10-Day Weather Forecast

Almanac

Astronomy

Aug. 21, 2014 Rise Set
Actual Time 6:20 AM CDT 7:48 PM CDT
Civil Twilight 5:51 AM CDT 8:16 PM CDT
Nautical Twilight 5:18 AM CDT 8:49 PM CDT
Astronomical Twilight 4:42 AM CDT 9:25 PM CDT
Moon 2:51 AM CDT 5:16 PM CDT
Length of Visible Light 14h 24m
Length of Day
13h 28m
Tomorrow will be 2m 21s shorter.
Waning Crescent, 15% of the Moon is Illuminated
Today
Waning Crescent
Aug 25
New
Sep 2
First Quarter
Sep 8
Full
Sep 15
Last Quarter

Today's Extremes

State Highs State Lows

Community

WunderPhotos

Upload Photos

1,745,871 photos uploaded!

Nearby

Snow Depth

Station Depth Elevation
No new snow has been reported.

Earthquake Activity

City Distance Mag. Time & Date
No recent earthquake activity has been reported nearby.
Minimum magnitude displayed is 2.5.

Coastal Water Temperatures

Place Temperature
No Stations Reporting

Nearby Weather Stations